Time;durP1;ratioP1;P1;durP2;ratioP2;P2;SDS_P1;SDS_P2;PMS_P1;PMS_P2;Temp;Humidity;BMP_temperature;BMP_pressure;BME280_temperature;BME280_humidity;BME280_pressure;Samples;Min_cycle;Max_cycle;Signal;HPM_P1;HPM_P2
2021/10/17 00:00:32;;;;;;;5.40;1.30;;;17.60;99.90;;;;;;4960923;28;20239;-90
2021/10/17 00:03:06;;;;;;;3.10;1.30;;;17.60;99.90;;;;;;4980762;28;20218;-90
2021/10/17 00:05:37;;;;;;;5.07;2.07;;;17.50;99.90;;;;;;4980082;28;20234;-91
2021/10/17 00:08:09;;;;;;;5.73;1.67;;;17.50;99.90;;;;;;4980653;28;20210;-89
2021/10/17 00:10:41;;;;;;;2.70;1.40;;;17.40;99.90;;;;;;4979948;28;20234;-90
2021/10/17 00:13:12;;;;;;;3.23;1.60;;;17.40;99.90;;;;;;4980216;28;20217;-90
2021/10/17 00:15:43;;;;;;;4.30;1.67;;;17.30;99.90;;;;;;4979784;28;20203;-90
2021/10/17 00:18:17;;;;;;;2.53;1.43;;;17.20;99.90;;;;;;4962368;28;20211;-90
2021/10/17 00:20:49;;;;;;;2.87;1.50;;;17.20;99.90;;;;;;4963670;28;20283;-89
2021/10/17 00:23:22;;;;;;;4.70;1.93;;;17.10;99.90;;;;;;4993494;28;20260;-90
2021/10/17 00:25:54;;;;;;;8.47;2.27;;;17.10;99.90;;;;;;4978660;28;20218;-90
2021/10/17 00:28:25;;;;;;;4.40;1.73;;;17.10;99.90;;;;;;4991128;28;20215;-89
2021/10/17 00:30:56;;;;;;;4.57;2.00;;;17.10;99.90;;;;;;4973169;28;20708;-88
2021/10/17 00:33:30;;;;;;;4.50;1.90;;;17.00;99.90;;;;;;4981060;28;20207;-89
2021/10/17 00:44:04;;;;;;;6.90;2.30;;;16.80;99.90;;;;;;5130660;23;20248;-89
2021/10/17 00:49:06;;;;;;;3.70;2.23;;;16.70;99.90;;;;;;4990846;28;20222;-88
2021/10/17 00:51:40;;;;;;;5.00;2.50;;;16.70;99.90;;;;;;4991750;28;20246;-89
2021/10/17 00:54:15;;;;;;;6.23;2.50;;;16.70;99.90;;;;;;4988851;28;20218;-88
2021/10/17 00:56:47;;;;;;;5.87;3.27;;;16.60;99.90;;;;;;4986758;28;20215;-90
2021/10/17 00:59:20;;;;;;;6.93;3.47;;;16.60;99.90;;;;;;4988833;28;20203;-90
2021/10/17 01:01:53;;;;;;;6.43;3.17;;;16.50;99.90;;;;;;4978896;28;20242;-90
2021/10/17 01:04:27;;;;;;;5.83;3.37;;;16.50;99.90;;;;;;4979154;28;20258;-90
2021/10/17 01:06:58;;;;;;;6.93;3.20;;;16.50;99.90;;;;;;4978873;28;20242;-90
2021/10/17 01:09:29;;;;;;;5.10;2.77;;;16.50;99.90;;;;;;4978952;28;20301;-89
2021/10/17 01:12:00;;;;;;;4.83;3.10;;;16.50;99.90;;;;;;4984973;28;20295;-90
2021/10/17 01:14:32;;;;;;;7.67;3.17;;;16.40;99.90;;;;;;4981739;28;20218;-90
2021/10/17 01:17:05;;;;;;;6.70;3.00;;;16.40;99.90;;;;;;4977861;28;20191;-90
2021/10/17 01:19:41;;;;;;;5.77;2.50;;;16.30;99.90;;;;;;4978490;28;20237;-90
2021/10/17 01:22:24;;;;;;;7.57;3.13;;;16.30;99.90;;;;;;4987265;28;20242;-91
2021/10/17 01:24:56;;;;;;;5.70;2.73;;;16.30;99.90;;;;;;4985476;28;20214;-89
2021/10/17 01:27:30;;;;;;;5.67;3.13;;;16.20;99.90;;;;;;4991102;28;20210;-90
2021/10/17 01:30:03;;;;;;;9.00;3.23;;;16.30;99.90;;;;;;4990090;28;20245;-90
2021/10/17 01:32:34;;;;;;;8.53;2.67;;;16.30;99.90;;;;;;4990711;28;20214;-89
2021/10/17 01:35:08;;;;;;;7.80;2.77;;;16.40;99.90;;;;;;4991353;28;20218;-89
2021/10/17 01:37:44;;;;;;;5.17;2.77;;;16.30;99.90;;;;;;4990016;28;20245;-90
2021/10/17 01:40:17;;;;;;;9.00;2.77;;;16.20;99.90;;;;;;4989887;28;20207;-90
2021/10/17 01:42:48;;;;;;;6.00;2.93;;;16.10;99.90;;;;;;4992675;28;20191;-89
2021/10/17 01:45:20;;;;;;;5.20;2.47;;;16.10;99.90;;;;;;4994061;28;20199;-89
2021/10/17 01:47:54;;;;;;;5.40;2.40;;;16.00;99.90;;;;;;4994632;28;20285;-89
2021/10/17 01:50:27;;;;;;;4.47;2.70;;;16.00;99.90;;;;;;4985444;28;20242;-89
2021/10/17 01:53:02;;;;;;;6.50;2.80;;;15.90;99.90;;;;;;4987536;28;20739;-89
2021/10/17 01:55:34;;;;;;;4.37;2.87;;;16.10;99.90;;;;;;4990199;28;20210;-90
2021/10/17 01:58:05;;;;;;;7.73;2.73;;;16.00;99.90;;;;;;4991117;28;20294;-90
2021/10/17 02:00:39;;;;;;;5.53;2.80;;;15.90;99.90;;;;;;4994261;28;20263;-91
2021/10/17 02:03:14;;;;;;;5.40;2.37;;;15.80;99.90;;;;;;4993956;28;20210;-90
2021/10/17 02:05:47;;;;;;;6.33;2.60;;;15.80;99.90;;;;;;4996443;28;20207;-91
2021/10/17 02:08:20;;;;;;;3.03;2.57;;;15.80;99.90;;;;;;4994447;28;20206;-91
2021/10/17 02:10:53;;;;;;;4.47;2.73;;;15.80;99.90;;;;;;4993716;28;20234;-92
2021/10/17 02:13:25;;;;;;;6.10;2.53;;;15.80;99.90;;;;;;4985101;28;20283;-92
2021/10/17 02:15:58;;;;;;;5.10;2.60;;;15.80;99.90;;;;;;4992583;28;20234;-92
2021/10/17 02:18:31;;;;;;;5.40;2.13;;;15.80;99.90;;;;;;4991457;28;20218;-92
2021/10/17 02:21:04;;;;;;;6.47;2.07;;;15.80;99.90;;;;;;4976679;28;20206;-92
2021/10/17 02:23:39;;;;;;;5.17;1.97;;;15.70;99.90;;;;;;4644155;28;10000647;-91
2021/10/17 02:26:11;;;;;;;5.30;2.37;;;15.70;99.90;;;;;;4992684;28;20266;-92
2021/10/17 02:28:43;;;;;;;4.50;2.60;;;15.60;99.90;;;;;;4976380;28;20220;-92
2021/10/17 02:31:16;;;;;;;13.47;7.53;;;15.60;99.90;;;;;;5009196;28;20421;-92
2021/10/17 02:33:48;;;;;;;5.57;2.70;;;15.50;99.90;;;;;;5010415;28;20202;-92
2021/10/17 02:39:15;;;;;;;10.90;5.93;;;15.50;99.90;;;;;;5308386;23;20258;-90
2021/10/17 02:41:47;;;;;;;7.20;3.43;;;15.40;99.90;;;;;;5001920;28;20195;-92
2021/10/17 02:44:19;;;;;;;13.70;6.10;;;15.50;99.90;;;;;;4996123;28;20199;-91
2021/10/17 02:46:50;;;;;;;10.57;5.70;;;15.40;99.90;;;;;;4993765;28;20230;-92
2021/10/17 02:49:25;;;;;;;6.97;3.33;;;15.40;99.90;;;;;;4990939;28;20558;-92
2021/10/17 02:51:56;;;;;;;7.27;2.90;;;15.40;99.90;;;;;;4983631;28;20234;-92
2021/10/17 02:54:30;;;;;;;49.10;39.83;;;15.30;99.90;;;;;;4982624;28;20659;-92
2021/10/17 02:57:01;;;;;;;9.87;7.33;;;15.30;99.90;;;;;;4981929;28;20210;-93
2021/10/17 02:59:33;;;;;;;5.53;3.63;;;15.20;99.90;;;;;;4982612;28;20598;-93
2021/10/17 03:02:04;;;;;;;7.63;3.60;;;15.10;99.90;;;;;;4981790;28;20207;-92
2021/10/17 03:07:13;;;;;;;32.27;21.33;;;14.80;99.90;;;;;;4997454;23;20583;-90
2021/10/17 03:09:48;;;;;;;15.07;8.40;;;14.80;99.90;;;;;;5015533;28;20206;-91
2021/10/17 03:15:25;;;;;;;13.73;7.23;;;14.60;99.90;;;;;;5019808;28;20225;-93
2021/10/17 03:17:58;;;;;;;8.37;5.53;;;14.50;99.90;;;;;;5020566;28;20237;-93
2021/10/17 03:20:31;;;;;;;9.10;5.00;;;14.50;99.90;;;;;;5019878;28;20210;-92
2021/10/17 03:28:38;;;;;;;9.07;6.90;;;14.20;99.90;;;;;;5008620;28;20237;-91
2021/10/17 03:31:09;;;;;;;13.13;8.23;;;14.20;99.90;;;;;;5092247;23;20273;-93
2021/10/17 03:33:42;;;;;;;10.57;5.97;;;14.10;99.90;;;;;;4984637;28;20206;-93
2021/10/17 03:36:21;;;;;;;9.23;5.83;;;14.00;99.90;;;;;;5012443;28;20194;-92
2021/10/17 03:38:52;;;;;;;12.97;8.37;;;13.90;99.90;;;;;;5016737;28;20210;-91
2021/10/17 03:41:25;;;;;;;12.63;5.73;;;13.90;99.90;;;;;;5010618;28;20214;-90
2021/10/17 03:43:59;;;;;;;7.20;3.93;;;13.80;99.90;;;;;;5012017;28;20237;-91
2021/10/17 03:51:42;;;;;;;10.70;5.17;;;13.70;99.90;;;;;;4981242;28;20261;-90
2021/10/17 03:54:14;;;;;;;6.37;3.20;;;13.70;99.90;;;;;;4983644;28;20219;-92
2021/10/17 03:56:45;;;;;;;6.67;3.30;;;13.70;99.90;;;;;;4979721;28;20640;-92
2021/10/17 03:59:19;;;;;;;6.03;3.30;;;13.70;99.90;;;;;;4980718;28;20203;-92
2021/10/17 04:01:50;;;;;;;8.97;4.13;;;13.70;99.90;;;;;;4984891;28;20218;-92
2021/10/17 04:04:22;;;;;;;4.70;3.63;;;13.70;99.90;;;;;;4971689;29;20224;-93
2021/10/17 04:06:53;;;;;;;5.53;3.07;;;13.70;99.90;;;;;;4966150;28;20227;-91
2021/10/17 04:17:27;;;;;;;6.07;3.23;;;13.70;99.90;;;;;;4989235;28;20313;-93
2021/10/17 04:20:03;;;;;;;25.67;15.37;;;13.70;99.90;;;;;;4989572;28;20218;-91
2021/10/17 04:22:40;;;;;;;7.53;3.77;;;13.80;99.90;;;;;;4987461;28;20211;-91
2021/10/17 04:25:16;;;;;;;7.57;4.43;;;13.80;99.90;;;;;;4973039;28;20442;-90
2021/10/17 04:28:06;;;;;;;19.47;12.00;;;13.80;99.90;;;;;;4996679;28;20209;-91
2021/10/17 04:30:39;;;;;;;7.50;3.53;;;13.90;99.90;;;;;;4993933;28;20195;-90
2021/10/17 04:33:13;;;;;;;4.00;2.53;;;13.90;99.90;;;;;;4997091;28;20226;-89
2021/10/17 04:35:47;;;;;;;5.80;2.57;;;13.90;99.90;;;;;;4992768;28;20227;-90
2021/10/17 04:38:19;;;;;;;7.57;2.47;;;13.90;99.90;;;;;;4983240;28;20215;-90
2021/10/17 04:40:51;;;;;;;4.47;2.13;;;13.90;99.90;;;;;;4979728;28;20215;-90
2021/10/17 04:43:23;;;;;;;4.13;2.07;;;13.90;99.90;;;;;;4960725;28;20664;-90
2021/10/17 04:45:55;;;;;;;5.57;3.00;;;13.90;99.90;;;;;;4974660;28;20227;-91
2021/10/17 04:48:29;;;;;;;3.90;2.27;;;13.90;99.90;;;;;;4962019;28;20211;-91
2021/10/17 04:51:01;;;;;;;5.57;3.57;;;13.90;99.90;;;;;;4979214;28;20226;-91
2021/10/17 04:53:32;;;;;;;3.73;2.33;;;13.80;99.90;;;;;;4978982;28;20259;-91
2021/10/17 04:56:03;;;;;;;12.53;3.87;;;13.70;99.90;;;;;;4972403;28;20207;-91
2021/10/17 04:58:35;;;;;;;5.63;3.50;;;13.70;99.90;;;;;;4971291;28;20207;-92
2021/10/17 05:01:06;;;;;;;10.93;4.40;;;13.60;99.90;;;;;;4979576;28;20234;-92
2021/10/17 05:03:39;;;;;;;14.77;7.43;;;13.60;99.90;;;;;;4959826;28;20580;-92
2021/10/17 05:06:12;;;;;;;10.53;4.00;;;13.50;99.90;;;;;;4962035;28;20857;-92
2021/10/17 05:08:43;;;;;;;5.50;3.30;;;13.40;99.90;;;;;;4959328;28;20204;-93
2021/10/17 05:11:14;;;;;;;8.23;3.30;;;13.30;99.90;;;;;;4959539;28;20211;-91
2021/10/17 05:13:48;;;;;;;4.83;3.20;;;13.20;99.90;;;;;;4959463;28;20274;-92
2021/10/17 05:16:20;;;;;;;7.47;3.30;;;13.10;99.90;;;;;;4964605;28;20215;-92
2021/10/17 05:18:53;;;;;;;5.30;2.93;;;13.10;99.90;;;;;;4963663;28;20310;-92
2021/10/17 05:21:27;;;;;;;4.47;3.63;;;13.00;99.90;;;;;;4969650;28;20214;-92
2021/10/17 05:23:58;;;;;;;6.57;3.00;;;12.90;99.90;;;;;;4971329;28;20211;-92
2021/10/17 05:26:39;;;;;;;7.97;3.43;;;12.80;99.90;;;;;;4970133;28;20246;-90
2021/10/17 05:29:10;;;;;;;10.43;6.33;;;12.70;99.90;;;;;;4961798;28;20628;-91
2021/10/17 05:31:41;;;;;;;9.80;4.47;;;12.70;99.90;;;;;;4959191;28;20230;-90
2021/10/17 05:34:15;;;;;;;7.20;3.73;;;12.60;99.90;;;;;;4958709;28;20279;-90
2021/10/17 05:36:46;;;;;;;6.90;3.33;;;12.50;99.90;;;;;;4957979;28;20295;-90
2021/10/17 05:39:17;;;;;;;6.33;3.50;;;12.50;99.90;;;;;;4957570;29;20219;-91
2021/10/17 05:41:48;;;;;;;5.10;3.27;;;12.50;99.90;;;;;;4958560;28;20218;-91
2021/10/17 05:44:19;;;;;;;7.20;3.67;;;12.40;99.90;;;;;;4958941;28;20239;-91
2021/10/17 05:46:51;;;;;;;6.73;4.40;;;12.30;99.90;;;;;;4957720;28;20271;-91
2021/10/17 05:49:24;;;;;;;8.47;4.70;;;12.30;99.90;;;;;;4958115;28;20239;-91
2021/10/17 05:51:55;;;;;;;5.70;3.33;;;12.30;99.90;;;;;;4958402;29;20216;-91
2021/10/17 05:54:27;;;;;;;12.03;3.23;;;12.20;99.90;;;;;;4960663;28;20238;-91
2021/10/17 05:56:59;;;;;;;7.73;3.43;;;12.20;99.90;;;;;;4958062;28;20212;-92
2021/10/17 05:59:30;;;;;;;7.20;3.23;;;12.10;99.90;;;;;;4958793;28;20661;-92
2021/10/17 06:02:02;;;;;;;10.47;3.83;;;12.10;99.90;;;;;;4965949;28;20220;-92
2021/10/17 06:04:35;;;;;;;8.57;3.70;;;12.10;99.90;;;;;;4960029;29;20236;-92
2021/10/17 06:07:06;;;;;;;6.20;3.60;;;12.10;99.90;;;;;;4970769;28;20203;-92
2021/10/17 06:09:44;;;;;;;3.83;2.80;;;12.00;99.90;;;;;;4967271;28;20209;-92
2021/10/17 06:12:17;;;;;;;6.77;3.40;;;12.00;99.90;;;;;;4962086;28;20211;-92
2021/10/17 06:14:49;;;;;;;8.17;3.13;;;12.00;99.90;;;;;;4959450;28;20263;-95
2021/10/17 06:17:21;;;;;;;5.67;3.27;;;12.00;99.90;;;;;;4958530;28;20208;-92
2021/10/17 06:19:57;;;;;;;7.43;3.00;;;11.90;99.90;;;;;;4960356;28;20295;-92
2021/10/17 06:22:30;;;;;;;4.67;2.90;;;11.90;99.90;;;;;;4943526;29;20668;-93
2021/10/17 06:25:02;;;;;;;3.97;2.60;;;11.90;99.90;;;;;;4959214;28;20243;-92
2021/10/17 06:27:34;;;;;;;4.03;2.57;;;11.90;99.90;;;;;;4958936;28;20203;-92
2021/10/17 06:30:06;;;;;;;4.80;2.87;;;11.80;99.90;;;;;;4958908;28;20254;-91
2021/10/17 06:32:37;;;;;;;7.20;2.83;;;11.80;99.90;;;;;;4959095;28;20216;-91
2021/10/17 06:35:13;;;;;;;8.83;3.10;;;11.80;99.90;;;;;;4959252;28;20623;-91
2021/10/17 06:37:44;;;;;;;6.23;3.30;;;11.80;99.90;;;;;;4958891;28;20630;-91
2021/10/17 06:40:16;;;;;;;4.87;2.77;;;11.70;99.90;;;;;;4958320;28;20211;-91
2021/10/17 06:42:47;;;;;;;7.17;3.70;;;11.70;99.90;;;;;;4959339;28;20212;-91
2021/10/17 06:45:19;;;;;;;7.67;3.37;;;11.70;99.90;;;;;;4965184;28;20263;-91
2021/10/17 06:47:50;;;;;;;5.10;3.07;;;11.60;99.90;;;;;;4963254;28;20214;-91
2021/10/17 06:50:25;;;;;;;10.00;4.57;;;11.60;99.90;;;;;;4970417;28;20660;-91
2021/10/17 06:52:55;;;;;;;4.60;3.20;;;11.50;99.90;;;;;;4962325;28;20258;-91
2021/10/17 06:55:27;;;;;;;6.27;3.30;;;11.50;99.90;;;;;;4970574;28;20211;-91
2021/10/17 06:57:58;;;;;;;10.10;3.80;;;11.40;99.90;;;;;;4962673;28;20235;-91
2021/10/17 07:00:30;;;;;;;8.13;3.30;;;11.40;99.90;;;;;;4963528;28;20210;-92
2021/10/17 07:03:04;;;;;;;5.47;3.43;;;11.40;99.90;;;;;;4970138;28;20227;-91
2021/10/17 07:05:37;;;;;;;5.70;3.10;;;11.30;99.90;;;;;;4978957;28;20247;-91
2021/10/17 07:08:10;;;;;;;6.87;2.50;;;11.30;99.90;;;;;;4980406;29;20210;-92
2021/10/17 07:10:41;;;;;;;5.10;2.97;;;11.30;99.90;;;;;;4966708;28;20207;-92
2021/10/17 07:13:12;;;;;;;10.33;3.10;;;11.30;99.90;;;;;;4964288;29;20255;-92
2021/10/17 07:15:44;;;;;;;9.73;3.77;;;11.20;99.90;;;;;;4969198;28;20257;-91
2021/10/17 07:18:15;;;;;;;6.80;5.07;;;11.30;99.90;;;;;;5012869;23;20278;-94
2021/10/17 07:20:50;;;;;;;10.63;5.00;;;11.30;99.90;;;;;;4996689;28;20207;-90
2021/10/17 07:23:22;;;;;;;10.63;5.23;;;11.30;99.90;;;;;;4988964;28;20198;-91
2021/10/17 07:25:53;;;;;;;6.07;4.80;;;11.30;99.90;;;;;;4987169;28;20237;-92
2021/10/17 07:28:25;;;;;;;10.63;5.90;;;11.30;99.90;;;;;;4985945;28;20279;-92
2021/10/17 07:30:57;;;;;;;12.30;4.70;;;11.20;99.90;;;;;;4988455;28;20217;-91
2021/10/17 07:33:30;;;;;;;8.87;4.00;;;11.20;99.90;;;;;;5000604;28;20223;-91
2021/10/17 07:36:04;;;;;;;7.67;4.17;;;11.20;99.90;;;;;;4999098;28;20206;-91
2021/10/17 07:38:35;;;;;;;5.27;3.50;;;11.20;99.90;;;;;;5000220;28;20213;-91
2021/10/17 07:41:07;;;;;;;4.27;3.23;;;11.20;99.90;;;;;;4999815;28;20210;-90
2021/10/17 07:43:38;;;;;;;6.10;2.80;;;11.20;99.90;;;;;;4999985;28;20232;-91
2021/10/17 07:46:10;;;;;;;6.73;3.00;;;11.20;99.90;;;;;;4999242;28;20214;-91
2021/10/17 07:48:41;;;;;;;6.23;3.10;;;11.20;99.90;;;;;;5000286;28;20269;-91
2021/10/17 07:51:15;;;;;;;5.40;3.57;;;11.20;99.90;;;;;;4999933;28;20202;-89
2021/10/17 07:53:46;;;;;;;9.53;4.57;;;11.10;99.90;;;;;;4999509;28;20230;-90
2021/10/17 07:56:17;;;;;;;6.90;4.00;;;11.20;99.90;;;;;;4998252;28;20221;-90
2021/10/17 07:58:50;;;;;;;6.13;3.80;;;11.20;99.90;;;;;;4999296;28;20214;-90
2021/10/17 08:01:22;;;;;;;7.43;3.73;;;11.20;99.90;;;;;;5013168;28;20230;-90
2021/10/17 08:06:40;;;;;;;7.30;4.20;;;11.20;99.90;;;;;;5006243;28;20206;-91
2021/10/17 08:09:11;;;;;;;10.17;4.80;;;11.20;99.90;;;;;;5000718;28;20278;-91
2021/10/17 08:11:47;;;;;;;8.90;3.80;;;11.20;99.90;;;;;;5013325;28;20214;-92
2021/10/17 08:14:18;;;;;;;5.73;3.40;;;11.20;99.90;;;;;;5007150;28;20246;-92
2021/10/17 08:16:51;;;;;;;8.23;3.60;;;11.20;99.90;;;;;;4998782;28;20211;-91
2021/10/17 08:19:22;;;;;;;6.10;3.13;;;11.20;99.90;;;;;;4999901;28;20227;-91
2021/10/17 08:21:55;;;;;;;6.40;3.23;;;11.20;99.90;;;;;;4998904;28;20237;-92
2021/10/17 08:24:26;;;;;;;7.20;3.23;;;11.20;99.90;;;;;;4999756;28;20221;-91
2021/10/17 08:26:57;;;;;;;5.00;3.33;;;11.20;99.90;;;;;;4999521;28;20206;-92
2021/10/17 08:29:29;;;;;;;7.00;3.10;;;11.20;99.90;;;;;;4999712;28;20206;-92
2021/10/17 08:32:00;;;;;;;9.47;3.73;;;11.10;99.90;;;;;;4999211;28;20228;-91
2021/10/17 08:34:31;;;;;;;5.17;2.90;;;11.20;99.90;;;;;;4999618;28;20238;-91
2021/10/17 08:37:06;;;;;;;7.87;2.63;;;11.20;99.90;;;;;;5001189;28;20232;-90
2021/10/17 08:39:36;;;;;;;5.97;2.87;;;11.20;99.90;;;;;;5000871;28;20237;-91
2021/10/17 08:42:08;;;;;;;5.10;2.60;;;11.20;99.90;;;;;;4996594;28;20221;-91
2021/10/17 08:45:01;;;;;;;5.57;2.73;;;11.20;99.90;;;;;;4997602;28;20218;-93
2021/10/17 08:47:35;;;;;;;9.40;3.13;;;11.20;99.90;;;;;;4999065;28;20227;-91
2021/10/17 08:50:10;;;;;;;6.90;2.83;;;11.20;99.90;;;;;;5000890;28;20197;-90
2021/10/17 08:52:43;;;;;;;7.40;3.00;;;11.20;99.90;;;;;;5009524;28;20210;-90
2021/10/17 08:55:15;;;;;;;7.80;3.17;;;11.30;99.90;;;;;;5003171;28;20239;-91
2021/10/17 08:57:46;;;;;;;9.20;2.83;;;11.20;99.90;;;;;;4984261;28;20281;-91
2021/10/17 09:00:28;;;;;;;9.63;3.20;;;11.20;99.90;;;;;;4980366;28;20245;-92
2021/10/17 09:03:01;;;;;;;9.13;2.90;;;11.20;99.90;;;;;;4981117;28;20790;-92
2021/10/17 09:05:39;;;;;;;5.10;2.63;;;11.20;99.90;;;;;;4977699;28;20286;-94
2021/10/17 09:08:16;;;;;;;7.10;2.43;;;11.20;99.90;;;;;;4977976;28;20695;-91
2021/10/17 09:10:53;;;;;;;7.80;3.00;;;11.20;99.90;;;;;;4979078;28;20245;-92
2021/10/17 09:13:25;;;;;;;8.10;3.00;;;11.20;99.90;;;;;;4979408;28;20234;-92
2021/10/17 09:15:57;;;;;;;5.83;2.50;;;11.30;99.90;;;;;;4979856;28;20643;-92
2021/10/17 09:18:34;;;;;;;5.53;2.70;;;11.30;99.90;;;;;;4982272;28;20306;-92
2021/10/17 09:21:10;;;;;;;7.73;3.13;;;11.30;99.90;;;;;;4982581;28;20293;-92
2021/10/17 09:23:47;;;;;;;6.10;2.73;;;11.30;99.90;;;;;;4991607;28;20218;-92
2021/10/17 09:26:32;;;;;;;6.53;2.50;;;11.30;99.90;;;;;;4995815;28;20210;-92
2021/10/17 09:29:04;;;;;;;5.03;2.40;;;11.30;99.90;;;;;;4980027;28;20219;-92
2021/10/17 09:31:35;;;;;;;4.90;2.60;;;11.40;99.90;;;;;;4981017;28;20660;-91
2021/10/17 09:34:09;;;;;;;6.40;2.60;;;11.40;99.90;;;;;;4979239;28;20215;-90
2021/10/17 09:36:41;;;;;;;5.13;2.77;;;11.50;99.90;;;;;;4978303;28;20225;-90
2021/10/17 09:39:16;;;;;;;7.30;2.13;;;11.50;99.90;;;;;;4979283;28;20218;-90
2021/10/17 09:41:52;;;;;;;8.23;2.90;;;11.50;99.90;;;;;;4978503;28;20245;-90
2021/10/17 09:44:23;;;;;;;7.73;2.70;;;11.50;99.90;;;;;;4978505;28;20236;-90
2021/10/17 09:46:59;;;;;;;6.23;2.17;;;11.60;99.90;;;;;;4977484;28;20219;-90
2021/10/17 09:49:32;;;;;;;6.50;2.63;;;11.60;99.90;;;;;;4979145;28;20260;-90
2021/10/17 09:52:15;;;;;;;6.20;2.70;;;11.60;99.90;;;;;;4977315;28;20206;-90
2021/10/17 09:54:50;;;;;;;4.70;2.50;;;11.60;99.90;;;;;;4978527;28;20226;-90
2021/10/17 09:57:21;;;;;;;6.60;2.70;;;11.70;99.90;;;;;;4978319;28;20245;-90
2021/10/17 09:59:52;;;;;;;4.73;2.20;;;11.70;99.90;;;;;;4977627;28;20616;-91
2021/10/17 10:02:25;;;;;;;5.90;2.70;;;11.60;99.90;;;;;;4977601;28;20294;-92
2021/10/17 10:04:58;;;;;;;5.37;2.50;;;11.60;99.90;;;;;;4977551;28;20219;-92
2021/10/17 10:07:32;;;;;;;4.87;2.20;;;11.60;99.90;;;;;;4978816;28;20219;-92
2021/10/17 10:10:07;;;;;;;5.37;2.40;;;11.70;99.90;;;;;;4978066;28;20226;-92
2021/10/17 10:12:41;;;;;;;5.83;2.70;;;11.70;99.90;;;;;;4978301;28;20211;-90
2021/10/17 10:15:13;;;;;;;4.93;2.50;;;11.70;99.90;;;;;;4977476;28;20249;-92
2021/10/17 10:17:48;;;;;;;3.93;2.07;;;11.70;99.90;;;;;;4978201;28;20214;-92
2021/10/17 10:20:19;;;;;;;5.00;2.37;;;11.70;99.90;;;;;;4979642;28;20297;-92
2021/10/17 10:22:53;;;;;;;5.07;2.70;;;11.60;99.90;;;;;;4981458;28;20206;-92
2021/10/17 10:25:27;;;;;;;4.07;2.10;;;11.60;99.90;;;;;;4979991;28;20274;-92
2021/10/17 10:27:59;;;;;;;5.23;2.60;;;11.70;99.90;;;;;;4982273;28;20245;-91
2021/10/17 10:30:34;;;;;;;2.70;2.23;;;11.70;99.90;;;;;;4981965;28;20211;-90
2021/10/17 10:33:20;;;;;;;3.77;2.33;;;11.70;99.90;;;;;;4981551;28;20210;-90
2021/10/17 10:36:13;;;;;;;4.27;2.10;;;11.60;99.90;;;;;;4981228;28;20234;-90
2021/10/17 10:39:21;;;;;;;6.63;2.00;;;11.70;99.90;;;;;;4982090;28;20222;-91
2021/10/17 10:42:02;;;;;;;3.87;2.27;;;11.70;99.90;;;;;;4980421;28;20588;-90
2021/10/17 10:44:42;;;;;;;3.70;2.23;;;11.70;99.90;;;;;;4981382;28;20282;-91
2021/10/17 10:47:24;;;;;;;4.83;2.40;;;11.70;99.90;;;;;;4981176;28;20691;-90
2021/10/17 10:49:56;;;;;;;5.17;2.47;;;11.70;99.90;;;;;;4980941;28;20237;-91
2021/10/17 10:52:47;;;;;;;5.33;2.67;;;11.60;99.90;;;;;;4982569;28;20207;-91
2021/10/17 10:55:44;;;;;;;6.43;2.50;;;11.60;99.90;;;;;;4980462;28;20235;-90
2021/10/17 10:58:28;;;;;;;3.67;2.23;;;11.60;99.90;;;;;;4980662;28;20210;-91
2021/10/17 11:01:00;;;;;;;4.20;2.40;;;11.60;99.90;;;;;;4981593;28;20238;-91
2021/10/17 11:03:45;;;;;;;7.23;2.70;;;11.60;99.90;;;;;;4981651;28;20207;-92
2021/10/17 11:06:19;;;;;;;2.43;2.03;;;11.50;99.90;;;;;;4981025;28;20238;-92
2021/10/17 11:09:23;;;;;;;3.77;2.10;;;11.50;99.90;;;;;;4982938;28;20226;-91
2021/10/17 11:11:57;;;;;;;4.40;2.40;;;11.60;99.90;;;;;;4980762;28;20286;-92
2021/10/17 11:14:31;;;;;;;7.23;2.30;;;11.50;99.90;;;;;;4981590;28;20270;-92
2021/10/17 11:17:06;;;;;;;5.93;2.23;;;11.60;99.90;;;;;;4981241;28;20285;-93
2021/10/17 11:19:38;;;;;;;6.50;2.63;;;11.50;99.90;;;;;;4984888;28;20218;-92
2021/10/17 11:22:09;;;;;;;8.63;2.97;;;11.50;99.90;;;;;;4980864;28;20235;-91
2021/10/17 11:24:40;;;;;;;4.97;2.37;;;11.50;99.90;;;;;;4981156;28;20231;-91
2021/10/17 11:27:13;;;;;;;4.53;2.40;;;11.50;99.90;;;;;;4981867;28;20221;-91
2021/10/17 11:29:49;;;;;;;5.70;2.33;;;11.50;99.90;;;;;;4982897;28;20293;-90
2021/10/17 11:32:22;;;;;;;4.50;2.30;;;11.50;99.90;;;;;;4980984;28;20214;-90
2021/10/17 11:35:01;;;;;;;4.70;2.20;;;11.50;99.90;;;;;;4988500;28;20223;-93
2021/10/17 11:37:35;;;;;;;5.47;2.50;;;11.50;99.90;;;;;;5000007;28;20199;-91
2021/10/17 11:40:12;;;;;;;3.40;2.10;;;11.50;99.90;;;;;;5000349;28;20651;-90
2021/10/17 11:42:47;;;;;;;5.50;2.43;;;11.50;99.90;;;;;;4998670;28;20214;-90
2021/10/17 11:45:25;;;;;;;4.77;2.17;;;11.50;99.90;;;;;;4987267;28;20292;-90
2021/10/17 11:47:58;;;;;;;5.80;1.97;;;11.50;99.90;;;;;;4982194;28;20269;-90
2021/10/17 11:50:31;;;;;;;4.73;2.20;;;11.50;99.90;;;;;;4981695;28;20718;-90
2021/10/17 11:53:03;;;;;;;5.97;2.50;;;11.50;99.90;;;;;;4985854;28;20215;-90
2021/10/17 11:55:39;;;;;;;10.40;2.10;;;11.60;99.90;;;;;;4995387;28;20241;-91
2021/10/17 11:58:16;;;;;;;5.07;2.20;;;11.60;99.90;;;;;;4998228;28;20214;-91
2021/10/17 12:00:51;;;;;;;4.83;2.93;;;11.50;99.90;;;;;;4998746;28;20217;-92
2021/10/17 12:03:24;;;;;;;2.83;2.30;;;11.60;99.90;;;;;;4998420;28;20206;-91
2021/10/17 12:05:57;;;;;;;6.30;2.63;;;11.60;99.90;;;;;;4998439;28;20211;-91
2021/10/17 12:08:29;;;;;;;12.87;2.50;;;11.50;99.90;;;;;;4998181;28;20222;-91
2021/10/17 12:11:04;;;;;;;7.53;2.13;;;11.50;99.90;;;;;;4998305;28;20213;-92
2021/10/17 12:13:42;;;;;;;6.67;2.10;;;11.50;99.90;;;;;;4989959;28;20245;-91
2021/10/17 12:16:18;;;;;;;5.80;2.00;;;11.50;99.90;;;;;;4982609;28;20703;-92
2021/10/17 12:18:51;;;;;;;5.40;2.20;;;11.50;99.90;;;;;;4983779;28;20222;-91
2021/10/17 12:21:26;;;;;;;5.20;2.07;;;11.50;99.90;;;;;;4982995;28;20226;-92
2021/10/17 12:24:04;;;;;;;8.73;2.70;;;11.50;99.90;;;;;;4983348;28;20220;-91
2021/10/17 12:26:37;;;;;;;4.47;2.40;;;11.40;99.90;;;;;;4981504;28;20210;-91
2021/10/17 12:29:11;;;;;;;5.43;2.10;;;11.40;99.90;;;;;;4982104;28;20589;-94
2021/10/17 12:31:47;;;;;;;4.97;2.30;;;11.40;99.90;;;;;;4981972;28;20223;-90
2021/10/17 12:34:20;;;;;;;3.57;2.00;;;11.40;99.90;;;;;;4981860;28;20230;-90
2021/10/17 12:36:51;;;;;;;4.97;2.17;;;11.40;99.90;;;;;;4980429;28;20254;-90
2021/10/17 12:39:23;;;;;;;4.73;1.90;;;11.40;99.90;;;;;;4981615;28;20214;-90
2021/10/17 12:41:59;;;;;;;3.33;2.23;;;11.40;99.90;;;;;;4981033;28;20215;-90
2021/10/17 12:44:30;;;;;;;7.10;2.50;;;11.30;99.90;;;;;;4980705;28;20210;-90
2021/10/17 12:47:07;;;;;;;3.13;2.33;;;11.30;99.90;;;;;;4979974;28;20238;-90
2021/10/17 12:49:40;;;;;;;5.77;2.10;;;11.30;99.90;;;;;;4980853;28;20238;-90
2021/10/17 12:52:11;;;;;;;4.33;2.07;;;11.30;99.90;;;;;;4981269;28;20230;-90
2021/10/17 12:54:43;;;;;;;4.90;2.30;;;11.30;99.90;;;;;;4981095;28;20211;-90
2021/10/17 12:57:19;;;;;;;5.93;2.57;;;11.30;99.90;;;;;;4979969;28;20262;-90
2021/10/17 12:59:57;;;;;;;4.63;2.40;;;11.30;99.90;;;;;;4980575;28;20236;-90
2021/10/17 13:02:40;;;;;;;3.57;2.27;;;11.20;99.90;;;;;;4980910;28;20227;-92
2021/10/17 13:05:18;;;;;;;8.53;2.83;;;11.20;99.90;;;;;;4989338;28;20206;-92
2021/10/17 13:07:49;;;;;;;5.30;2.13;;;11.20;99.90;;;;;;4993801;28;20198;-90
2021/10/17 13:10:28;;;;;;;3.93;2.00;;;11.20;99.90;;;;;;4992148;28;20191;-90
2021/10/17 13:12:59;;;;;;;4.23;2.50;;;11.20;99.90;;;;;;4989068;28;20218;-92
2021/10/17 13:15:33;;;;;;;14.70;3.03;;;11.20;99.90;;;;;;4985313;28;20214;-91
2021/10/17 13:18:07;;;;;;;6.57;2.17;;;11.30;99.90;;;;;;4982732;28;20234;-92
2021/10/17 13:20:43;;;;;;;4.57;2.10;;;11.30;99.90;;;;;;4980327;28;20675;-91
2021/10/17 13:23:20;;;;;;;5.77;2.20;;;11.30;99.90;;;;;;4965346;28;20226;-91
2021/10/17 13:25:56;;;;;;;3.77;2.40;;;11.30;99.90;;;;;;4979551;28;20215;-93
2021/10/17 13:28:28;;;;;;;6.63;1.80;;;11.30;99.90;;;;;;4992158;28;20202;-91
2021/10/17 13:30:59;;;;;;;5.40;2.20;;;11.30;99.90;;;;;;4990504;28;20213;-90
2021/10/17 13:33:33;;;;;;;3.50;1.97;;;11.30;99.90;;;;;;4982184;28;20206;-91
2021/10/17 13:36:04;;;;;;;9.47;2.40;;;11.50;99.90;;;;;;4989778;28;20276;-90
2021/10/17 13:38:38;;;;;;;7.83;2.50;;;11.50;99.90;;;;;;4999579;28;20526;-90
2021/10/17 13:41:10;;;;;;;5.13;2.30;;;11.50;99.90;;;;;;4982525;28;20195;-91
2021/10/17 13:43:41;;;;;;;4.90;2.33;;;11.60;99.90;;;;;;4995364;28;20191;-90
2021/10/17 13:46:13;;;;;;;5.27;2.23;;;11.70;99.90;;;;;;5002986;28;20230;-90
2021/10/17 13:48:46;;;;;;;6.67;2.37;;;11.70;99.90;;;;;;5016630;28;20246;-91
2021/10/17 13:51:18;;;;;;;5.20;2.50;;;11.60;99.90;;;;;;5015521;28;20210;-90
2021/10/17 13:53:50;;;;;;;5.03;2.27;;;11.60;99.90;;;;;;5015120;28;20213;-90
2021/10/17 13:56:23;;;;;;;6.30;2.30;;;11.60;99.90;;;;;;5013304;28;20202;-90
2021/10/17 13:58:54;;;;;;;7.73;2.70;;;11.60;99.90;;;;;;5004453;28;20591;-90